sensor_id;sensor_type;location;lat;lon;timestamp;temperature;humidity
2174;DHT22;1093;51.424;11.764;2022-08-11T00:02:27;17.60;1.40
2174;DHT22;1093;51.424;11.764;2022-08-11T00:04:56;17.60;1.40
2174;DHT22;1093;51.424;11.764;2022-08-11T00:07:27;17.60;1.40
2174;DHT22;1093;51.424;11.764;2022-08-11T00:09:55;17.50;1.40
2174;DHT22;1093;51.424;11.764;2022-08-11T00:12:24;17.50;1.40
2174;DHT22;1093;51.424;11.764;2022-08-11T00:14:57;17.50;1.40
2174;DHT22;1093;51.424;11.764;2022-08-11T00:17:27;17.40;1.40
2174;DHT22;1093;51.424;11.764;2022-08-11T00:20:01;17.40;1.40
2174;DHT22;1093;51.424;11.764;2022-08-11T00:22:31;17.40;1.40
2174;DHT22;1093;51.424;11.764;2022-08-11T00:25:00;17.30;1.40
2174;DHT22;1093;51.424;11.764;2022-08-11T00:27:35;17.30;1.40
2174;DHT22;1093;51.424;11.764;2022-08-11T00:30:03;17.30;1.40
2174;DHT22;1093;51.424;11.764;2022-08-11T00:32:31;17.30;1.40
2174;DHT22;1093;51.424;11.764;2022-08-11T00:35:01;17.20;1.40
2174;DHT22;1093;51.424;11.764;2022-08-11T00:37:29;17.20;1.40
2174;DHT22;1093;51.424;11.764;2022-08-11T00:40:02;17.10;1.40
2174;DHT22;1093;51.424;11.764;2022-08-11T00:42:42;17.00;1.40
2174;DHT22;1093;51.424;11.764;2022-08-11T00:45:18;17.00;1.40
2174;DHT22;1093;51.424;11.764;2022-08-11T00:47:58;17.00;1.40
2174;DHT22;1093;51.424;11.764;2022-08-11T00:50:46;17.00;1.40
2174;DHT22;1093;51.424;11.764;2022-08-11T00:53:35;17.00;1.40
2174;DHT22;1093;51.424;11.764;2022-08-11T01:02:43;16.90;1.40
2174;DHT22;1093;51.424;11.764;2022-08-11T01:05:36;16.80;1.40
2174;DHT22;1093;51.424;11.764;2022-08-11T01:08:37;16.80;1.40
2174;DHT22;1093;51.424;11.764;2022-08-11T01:11:44;16.80;1.40
2174;DHT22;1093;51.424;11.764;2022-08-11T01:14:55;16.80;1.40
2174;DHT22;1093;51.424;11.764;2022-08-11T01:24:27;16.70;1.40
2174;DHT22;1093;51.424;11.764;2022-08-11T01:27:31;16.70;1.40
2174;DHT22;1093;51.424;11.764;2022-08-11T01:45:47;16.50;1.40
2174;DHT22;1093;51.424;11.764;2022-08-11T01:48:21;16.40;1.40
2174;DHT22;1093;51.424;11.764;2022-08-11T01:51:06;16.40;1.40
2174;DHT22;1093;51.424;11.764;2022-08-11T01:53:43;16.30;1.40
2174;DHT22;1093;51.424;11.764;2022-08-11T01:56:26;16.30;1.40
2174;DHT22;1093;51.424;11.764;2022-08-11T01:59:03;16.20;1.40
2174;DHT22;1093;51.424;11.764;2022-08-11T02:01:44;16.20;1.40
2174;DHT22;1093;51.424;11.764;2022-08-11T02:04:23;16.20;1.40
2174;DHT22;1093;51.424;11.764;2022-08-11T02:06:57;16.10;1.40
2174;DHT22;1093;51.424;11.764;2022-08-11T02:09:54;16.00;1.40
2174;DHT22;1093;51.424;11.764;2022-08-11T02:12:38;15.90;1.40
2174;DHT22;1093;51.424;11.764;2022-08-11T02:15:13;15.90;1.40
2174;DHT22;1093;51.424;11.764;2022-08-11T02:17:48;15.70;1.40
2174;DHT22;1093;51.424;11.764;2022-08-11T02:20:18;15.70;1.40
2174;DHT22;1093;51.424;11.764;2022-08-11T02:23:13;15.70;1.40
2174;DHT22;1093;51.424;11.764;2022-08-11T02:26:09;15.70;1.40
2174;DHT22;1093;51.424;11.764;2022-08-11T02:28:53;15.60;1.40
2174;DHT22;1093;51.424;11.764;2022-08-11T02:31:32;15.50;1.40
2174;DHT22;1093;51.424;11.764;2022-08-11T02:34:27;15.40;1.40
2174;DHT22;1093;51.424;11.764;2022-08-11T02:37:09;15.40;1.40
2174;DHT22;1093;51.424;11.764;2022-08-11T02:39:46;15.40;1.40
2174;DHT22;1093;51.424;11.764;2022-08-11T02:42:22;15.30;1.40
2174;DHT22;1093;51.424;11.764;2022-08-11T02:45:04;15.30;1.40
2174;DHT22;1093;51.424;11.764;2022-08-11T02:47:42;15.20;1.40
2174;DHT22;1093;51.424;11.764;2022-08-11T02:50:38;15.20;1.40
2174;DHT22;1093;51.424;11.764;2022-08-11T02:53:12;15.10;1.40
2174;DHT22;1093;51.424;11.764;2022-08-11T02:55:53;15.10;1.40
2174;DHT22;1093;51.424;11.764;2022-08-11T02:58:32;15.10;1.40
2174;DHT22;1093;51.424;11.764;2022-08-11T03:01:09;15.00;1.40
2174;DHT22;1093;51.424;11.764;2022-08-11T03:03:46;15.00;1.40
2174;DHT22;1093;51.424;11.764;2022-08-11T03:06:23;15.00;1.40
2174;DHT22;1093;51.424;11.764;2022-08-11T03:08:58;15.00;1.40
2174;DHT22;1093;51.424;11.764;2022-08-11T03:11:44;14.90;1.40
2174;DHT22;1093;51.424;11.764;2022-08-11T03:14:34;14.90;1.40
2174;DHT22;1093;51.424;11.764;2022-08-11T03:17:29;14.90;1.40
2174;DHT22;1093;51.424;11.764;2022-08-11T03:20:08;14.80;1.40
2174;DHT22;1093;51.424;11.764;2022-08-11T03:22:43;14.80;1.40
2174;DHT22;1093;51.424;11.764;2022-08-11T03:25:24;14.80;1.40
2174;DHT22;1093;51.424;11.764;2022-08-11T03:28:00;14.80;1.40
2174;DHT22;1093;51.424;11.764;2022-08-11T03:30:42;14.80;1.40
2174;DHT22;1093;51.424;11.764;2022-08-11T03:33:22;14.70;1.40
2174;DHT22;1093;51.424;11.764;2022-08-11T03:36:17;14.70;1.40
2174;DHT22;1093;51.424;11.764;2022-08-11T03:41:47;14.70;1.40
2174;DHT22;1093;51.424;11.764;2022-08-11T03:44:38;14.70;1.40
2174;DHT22;1093;51.424;11.764;2022-08-11T03:47:22;14.70;1.40
2174;DHT22;1093;51.424;11.764;2022-08-11T03:50:03;14.60;1.40
2174;DHT22;1093;51.424;11.764;2022-08-11T03:52:47;14.50;1.40
2174;DHT22;1093;51.424;11.764;2022-08-11T03:55:26;14.50;1.40
2174;DHT22;1093;51.424;11.764;2022-08-11T03:58:25;14.40;1.40
2174;DHT22;1093;51.424;11.764;2022-08-11T04:04:43;14.30;1.40
2174;DHT22;1093;51.424;11.764;2022-08-11T04:07:55;14.30;1.40
2174;DHT22;1093;51.424;11.764;2022-08-11T04:10:43;14.20;1.40
2174;DHT22;1093;51.424;11.764;2022-08-11T04:23:03;14.00;1.40
2174;DHT22;1093;51.424;11.764;2022-08-11T04:28:49;13.90;1.40
2174;DHT22;1093;51.424;11.764;2022-08-11T04:31:34;13.90;1.40
2174;DHT22;1093;51.424;11.764;2022-08-11T04:34:23;13.90;1.40
2174;DHT22;1093;51.424;11.764;2022-08-11T04:37:37;13.90;1.40
2174;DHT22;1093;51.424;11.764;2022-08-11T04:40:41;13.90;1.40
2174;DHT22;1093;51.424;11.764;2022-08-11T04:49:36;13.90;1.40
2174;DHT22;1093;51.424;11.764;2022-08-11T04:52:41;14.00;1.40
2174;DHT22;1093;51.424;11.764;2022-08-11T04:55:44;13.90;1.40
2174;DHT22;1093;51.424;11.764;2022-08-11T04:58:48;13.90;1.40
2174;DHT22;1093;51.424;11.764;2022-08-11T05:01:43;14.00;1.40
2174;DHT22;1093;51.424;11.764;2022-08-11T05:04:40;14.00;1.40
2174;DHT22;1093;51.424;11.764;2022-08-11T05:08:09;14.00;1.40
2174;DHT22;1093;51.424;11.764;2022-08-11T05:10:56;14.10;1.40
2174;DHT22;1093;51.424;11.764;2022-08-11T05:13:28;14.10;1.40
2174;DHT22;1093;51.424;11.764;2022-08-11T05:16:18;14.20;1.40
2174;DHT22;1093;51.424;11.764;2022-08-11T05:19:03;14.20;1.40
2174;DHT22;1093;51.424;11.764;2022-08-11T05:21:52;14.30;1.40
2174;DHT22;1093;51.424;11.764;2022-08-11T05:24:43;14.30;1.40
2174;DHT22;1093;51.424;11.764;2022-08-11T05:27:34;14.40;1.40
2174;DHT22;1093;51.424;11.764;2022-08-11T05:30:20;14.60;1.40
2174;DHT22;1093;51.424;11.764;2022-08-11T05:33:14;14.80;1.40
2174;DHT22;1093;51.424;11.764;2022-08-11T05:36:07;15.00;1.40
2174;DHT22;1093;51.424;11.764;2022-08-11T05:38:38;15.10;1.40
2174;DHT22;1093;51.424;11.764;2022-08-11T05:41:25;15.40;1.40
2174;DHT22;1093;51.424;11.764;2022-08-11T05:44:17;15.50;1.40
2174;DHT22;1093;51.424;11.764;2022-08-11T05:47:03;15.70;1.40
2174;DHT22;1093;51.424;11.764;2022-08-11T05:49:49;15.90;1.40
2174;DHT22;1093;51.424;11.764;2022-08-11T05:52:35;16.10;1.40
2174;DHT22;1093;51.424;11.764;2022-08-11T05:55:22;16.30;1.40
2174;DHT22;1093;51.424;11.764;2022-08-11T05:58:12;16.50;1.40
2174;DHT22;1093;51.424;11.764;2022-08-11T06:00:45;16.70;1.40
2174;DHT22;1093;51.424;11.764;2022-08-11T06:03:24;16.90;1.40
2174;DHT22;1093;51.424;11.764;2022-08-11T06:05:51;17.00;1.40
2174;DHT22;1093;51.424;11.764;2022-08-11T06:08:27;17.20;1.40
2174;DHT22;1093;51.424;11.764;2022-08-11T06:10:59;17.40;1.40
2174;DHT22;1093;51.424;11.764;2022-08-11T06:13:27;17.50;1.40
2174;DHT22;1093;51.424;11.764;2022-08-11T06:15:57;17.60;1.40
2174;DHT22;1093;51.424;11.764;2022-08-11T06:18:24;17.70;1.40
2174;DHT22;1093;51.424;11.764;2022-08-11T06:24:15;18.00;1.40
2174;DHT22;1093;51.424;11.764;2022-08-11T06:26:50;18.20;1.40
2174;DHT22;1093;51.424;11.764;2022-08-11T06:29:27;18.40;1.40
2174;DHT22;1093;51.424;11.764;2022-08-11T06:32:25;18.50;1.40
2174;DHT22;1093;51.424;11.764;2022-08-11T06:35:22;18.60;1.40
2174;DHT22;1093;51.424;11.764;2022-08-11T06:38:11;18.80;1.40
2174;DHT22;1093;51.424;11.764;2022-08-11T06:43:32;18.90;1.40
2174;DHT22;1093;51.424;11.764;2022-08-11T06:46:06;19.00;1.40
2174;DHT22;1093;51.424;11.764;2022-08-11T06:48:39;19.10;1.40
2174;DHT22;1093;51.424;11.764;2022-08-11T06:51:08;19.10;1.40
2174;DHT22;1093;51.424;11.764;2022-08-11T06:53:43;19.30;1.40
2174;DHT22;1093;51.424;11.764;2022-08-11T06:56:10;19.40;1.40
2174;DHT22;1093;51.424;11.764;2022-08-11T06:58:56;19.50;1.40
2174;DHT22;1093;51.424;11.764;2022-08-11T07:01:46;19.60;1.40
2174;DHT22;1093;51.424;11.764;2022-08-11T07:04:27;19.70;1.40
2174;DHT22;1093;51.424;11.764;2022-08-11T07:07:07;19.80;1.40
2174;DHT22;1093;51.424;11.764;2022-08-11T07:13:02;20.00;1.40
2174;DHT22;1093;51.424;11.764;2022-08-11T07:15:47;20.10;1.40
2174;DHT22;1093;51.424;11.764;2022-08-11T07:18:20;20.20;1.40
2174;DHT22;1093;51.424;11.764;2022-08-11T07:21:10;20.30;1.40
2174;DHT22;1093;51.424;11.764;2022-08-11T07:23:56;20.40;1.40
2174;DHT22;1093;51.424;11.764;2022-08-11T07:26:44;20.50;1.40
2174;DHT22;1093;51.424;11.764;2022-08-11T07:29:31;20.60;1.40
2174;DHT22;1093;51.424;11.764;2022-08-11T07:32:08;20.80;1.40
2174;DHT22;1093;51.424;11.764;2022-08-11T07:34:38;20.90;1.40
2174;DHT22;1093;51.424;11.764;2022-08-11T07:37:12;20.90;1.40
2174;DHT22;1093;51.424;11.764;2022-08-11T07:39:41;21.00;1.40
2174;DHT22;1093;51.424;11.764;2022-08-11T07:42:10;21.10;1.40
2174;DHT22;1093;51.424;11.764;2022-08-11T07:44:39;21.30;1.40
2174;DHT22;1093;51.424;11.764;2022-08-11T07:47:21;21.40;1.40
2174;DHT22;1093;51.424;11.764;2022-08-11T07:50:08;21.50;1.40
2174;DHT22;1093;51.424;11.764;2022-08-11T07:52:54;21.60;1.40
2174;DHT22;1093;51.424;11.764;2022-08-11T07:55:21;21.80;1.40
2174;DHT22;1093;51.424;11.764;2022-08-11T07:57:50;21.80;1.40
2174;DHT22;1093;51.424;11.764;2022-08-11T08:00:36;21.80;1.40
2174;DHT22;1093;51.424;11.764;2022-08-11T08:03:21;22.00;1.40
2174;DHT22;1093;51.424;11.764;2022-08-11T08:06:06;22.10;1.40
2174;DHT22;1093;51.424;11.764;2022-08-11T08:08:53;22.20;1.40
2174;DHT22;1093;51.424;11.764;2022-08-11T08:11:38;22.20;1.40
2174;DHT22;1093;51.424;11.764;2022-08-11T08:14:24;22.30;1.40
2174;DHT22;1093;51.424;11.764;2022-08-11T08:17:09;22.40;1.40
2174;DHT22;1093;51.424;11.764;2022-08-11T08:19:54;22.60;1.40
2174;DHT22;1093;51.424;11.764;2022-08-11T08:22:21;22.60;1.40
2174;DHT22;1093;51.424;11.764;2022-08-11T08:24:50;22.90;1.40
2174;DHT22;1093;51.424;11.764;2022-08-11T08:27:19;23.00;1.40
2174;DHT22;1093;51.424;11.764;2022-08-11T08:29:46;23.00;1.40
2174;DHT22;1093;51.424;11.764;2022-08-11T08:32:31;23.20;1.40
2174;DHT22;1093;51.424;11.764;2022-08-11T08:35:00;23.40;1.40
2174;DHT22;1093;51.424;11.764;2022-08-11T08:37:28;23.50;1.40
2174;DHT22;1093;51.424;11.764;2022-08-11T08:39:56;23.70;1.40
2174;DHT22;1093;51.424;11.764;2022-08-11T08:42:25;23.90;1.40
2174;DHT22;1093;51.424;11.764;2022-08-11T08:44:57;24.10;1.40
2174;DHT22;1093;51.424;11.764;2022-08-11T08:47:25;24.30;1.40
2174;DHT22;1093;51.424;11.764;2022-08-11T08:50:03;24.70;1.40
2174;DHT22;1093;51.424;11.764;2022-08-11T08:52:34;25.00;1.40
2174;DHT22;1093;51.424;11.764;2022-08-11T08:55:08;25.40;1.40
2174;DHT22;1093;51.424;11.764;2022-08-11T08:57:38;25.60;1.40
2174;DHT22;1093;51.424;11.764;2022-08-11T09:00:07;26.00;1.40
2174;DHT22;1093;51.424;11.764;2022-08-11T09:02:35;26.30;1.40
2174;DHT22;1093;51.424;11.764;2022-08-11T09:05:03;26.60;1.40
2174;DHT22;1093;51.424;11.764;2022-08-11T09:07:31;26.90;1.40
2174;DHT22;1093;51.424;11.764;2022-08-11T09:09:58;27.20;1.40
2174;DHT22;1093;51.424;11.764;2022-08-11T09:12:28;27.40;1.40
2174;DHT22;1093;51.424;11.764;2022-08-11T09:14:56;27.70;1.40
2174;DHT22;1093;51.424;11.764;2022-08-11T09:17:29;27.90;1.40
2174;DHT22;1093;51.424;11.764;2022-08-11T09:19:59;28.20;1.40
2174;DHT22;1093;51.424;11.764;2022-08-11T09:22:27;28.50;1.40
2174;DHT22;1093;51.424;11.764;2022-08-11T09:25:12;28.70;1.40
2174;DHT22;1093;51.424;11.764;2022-08-11T09:27:59;28.90;1.40
2174;DHT22;1093;51.424;11.764;2022-08-11T09:30:27;29.10;1.40
2174;DHT22;1093;51.424;11.764;2022-08-11T09:32:55;29.40;1.40
2174;DHT22;1093;51.424;11.764;2022-08-11T09:35:23;29.60;1.40
2174;DHT22;1093;51.424;11.764;2022-08-11T09:37:51;29.60;1.40
2174;DHT22;1093;51.424;11.764;2022-08-11T09:40:37;29.70;1.40
2174;DHT22;1093;51.424;11.764;2022-08-11T09:43:09;29.80;1.40
2174;DHT22;1093;51.424;11.764;2022-08-11T09:45:55;29.80;1.40
2174;DHT22;1093;51.424;11.764;2022-08-11T09:48:25;29.90;1.40
2174;DHT22;1093;51.424;11.764;2022-08-11T09:50:53;30.10;1.40
2174;DHT22;1093;51.424;11.764;2022-08-11T09:53:22;30.30;1.40
2174;DHT22;1093;51.424;11.764;2022-08-11T09:55:50;30.40;1.40
2174;DHT22;1093;51.424;11.764;2022-08-11T09:58:19;30.50;1.40
2174;DHT22;1093;51.424;11.764;2022-08-11T10:00:48;30.60;1.40
2174;DHT22;1093;51.424;11.764;2022-08-11T10:03:17;30.70;1.40
2174;DHT22;1093;51.424;11.764;2022-08-11T10:05:48;30.70;1.40
2174;DHT22;1093;51.424;11.764;2022-08-11T10:08:36;30.80;1.40
2174;DHT22;1093;51.424;11.764;2022-08-11T10:11:04;30.70;1.40
2174;DHT22;1093;51.424;11.764;2022-08-11T10:13:34;30.70;1.40
2174;DHT22;1093;51.424;11.764;2022-08-11T10:16:26;30.60;1.40
2174;DHT22;1093;51.424;11.764;2022-08-11T10:18:53;30.50;1.40
2174;DHT22;1093;51.424;11.764;2022-08-11T10:21:27;30.50;1.40
2174;DHT22;1093;51.424;11.764;2022-08-11T10:23:56;30.40;1.40
2174;DHT22;1093;51.424;11.764;2022-08-11T10:26:42;30.60;1.40
2174;DHT22;1093;51.424;11.764;2022-08-11T10:29:20;30.50;1.40
2174;DHT22;1093;51.424;11.764;2022-08-11T10:32:07;30.60;1.40
2174;DHT22;1093;51.424;11.764;2022-08-11T10:34:51;30.70;1.40
2174;DHT22;1093;51.424;11.764;2022-08-11T10:37:21;30.60;1.40
2174;DHT22;1093;51.424;11.764;2022-08-11T10:39:49;30.60;1.40
2174;DHT22;1093;51.424;11.764;2022-08-11T10:42:16;30.80;1.40
2174;DHT22;1093;51.424;11.764;2022-08-11T10:45:04;30.80;1.40
2174;DHT22;1093;51.424;11.764;2022-08-11T10:47:53;30.90;1.40
2174;DHT22;1093;51.424;11.764;2022-08-11T10:50:20;30.90;1.40
2174;DHT22;1093;51.424;11.764;2022-08-11T10:53:06;31.00;1.40
2174;DHT22;1093;51.424;11.764;2022-08-11T10:55:51;30.90;1.40
2174;DHT22;1093;51.424;11.764;2022-08-11T10:58:36;30.90;1.40
2174;DHT22;1093;51.424;11.764;2022-08-11T11:01:17;31.00;1.40
2174;DHT22;1093;51.424;11.764;2022-08-11T11:03:49;31.30;1.40
2174;DHT22;1093;51.424;11.764;2022-08-11T11:06:21;31.10;1.40
2174;DHT22;1093;51.424;11.764;2022-08-11T11:08:52;30.90;1.40
2174;DHT22;1093;51.424;11.764;2022-08-11T11:11:26;31.00;1.40
2174;DHT22;1093;51.424;11.764;2022-08-11T11:14:10;31.00;1.40
2174;DHT22;1093;51.424;11.764;2022-08-11T11:16:57;31.00;1.40
2174;DHT22;1093;51.424;11.764;2022-08-11T11:19:42;30.90;1.40
2174;DHT22;1093;51.424;11.764;2022-08-11T11:22:10;31.10;1.40
2174;DHT22;1093;51.424;11.764;2022-08-11T11:25:07;31.00;1.40
2174;DHT22;1093;51.424;11.764;2022-08-11T11:27:43;31.00;1.40
2174;DHT22;1093;51.424;11.764;2022-08-11T11:30:13;31.00;1.40
2174;DHT22;1093;51.424;11.764;2022-08-11T11:32:49;30.80;1.40
2174;DHT22;1093;51.424;11.764;2022-08-11T11:35:36;30.80;1.40
2174;DHT22;1093;51.424;11.764;2022-08-11T11:38:10;30.90;1.40
2174;DHT22;1093;51.424;11.764;2022-08-11T11:40:38;31.00;1.40
2174;DHT22;1093;51.424;11.764;2022-08-11T11:43:05;31.10;1.40
2174;DHT22;1093;51.424;11.764;2022-08-11T11:45:33;30.90;1.40
2174;DHT22;1093;51.424;11.764;2022-08-11T11:48:01;30.90;1.40
2174;DHT22;1093;51.424;11.764;2022-08-11T11:50:30;30.80;1.40
2174;DHT22;1093;51.424;11.764;2022-08-11T11:52:58;30.80;1.40
2174;DHT22;1093;51.424;11.764;2022-08-11T11:55:27;30.90;1.40
2174;DHT22;1093;51.424;11.764;2022-08-11T11:57:56;30.80;1.40
2174;DHT22;1093;51.424;11.764;2022-08-11T12:00:43;30.90;1.40
2174;DHT22;1093;51.424;11.764;2022-08-11T12:03:29;30.90;1.40
2174;DHT22;1093;51.424;11.764;2022-08-11T12:05:57;30.90;1.40
2174;DHT22;1093;51.424;11.764;2022-08-11T12:08:25;30.90;1.40
2174;DHT22;1093;51.424;11.764;2022-08-11T12:10:54;30.90;1.40
2174;DHT22;1093;51.424;11.764;2022-08-11T12:13:37;30.90;1.40
2174;DHT22;1093;51.424;11.764;2022-08-11T12:16:08;30.90;1.40
2174;DHT22;1093;51.424;11.764;2022-08-11T12:18:37;31.00;1.40
2174;DHT22;1093;51.424;11.764;2022-08-11T12:21:07;31.00;1.40
2174;DHT22;1093;51.424;11.764;2022-08-11T12:23:35;31.00;1.40
2174;DHT22;1093;51.424;11.764;2022-08-11T12:26:20;31.00;1.40
2174;DHT22;1093;51.424;11.764;2022-08-11T12:29:09;31.10;1.40
2174;DHT22;1093;51.424;11.764;2022-08-11T12:31:37;31.10;1.40
2174;DHT22;1093;51.424;11.764;2022-08-11T12:34:06;31.20;1.40
2174;DHT22;1093;51.424;11.764;2022-08-11T12:36:36;31.20;1.40
2174;DHT22;1093;51.424;11.764;2022-08-11T12:39:06;31.30;1.40
2174;DHT22;1093;51.424;11.764;2022-08-11T12:41:35;31.30;1.40
2174;DHT22;1093;51.424;11.764;2022-08-11T12:44:22;31.20;1.40
2174;DHT22;1093;51.424;11.764;2022-08-11T12:47:08;31.30;1.40
2174;DHT22;1093;51.424;11.764;2022-08-11T12:49:42;31.20;1.40
2174;DHT22;1093;51.424;11.764;2022-08-11T12:52:33;31.20;1.40
2174;DHT22;1093;51.424;11.764;2022-08-11T12:55:09;31.30;1.40
2174;DHT22;1093;51.424;11.764;2022-08-11T12:57:38;31.40;1.40
2174;DHT22;1093;51.424;11.764;2022-08-11T13:00:26;31.40;1.40
2174;DHT22;1093;51.424;11.764;2022-08-11T13:03:11;31.40;1.40
2174;DHT22;1093;51.424;11.764;2022-08-11T13:05:59;31.40;1.40
2174;DHT22;1093;51.424;11.764;2022-08-11T13:08:28;31.50;1.40
2174;DHT22;1093;51.424;11.764;2022-08-11T13:10:58;31.50;1.40
2174;DHT22;1093;51.424;11.764;2022-08-11T13:13:46;31.70;1.40
2174;DHT22;1093;51.424;11.764;2022-08-11T13:16:13;31.60;1.40
2174;DHT22;1093;51.424;11.764;2022-08-11T13:18:41;31.70;1.40
2174;DHT22;1093;51.424;11.764;2022-08-11T13:21:11;31.60;1.40
2174;DHT22;1093;51.424;11.764;2022-08-11T13:23:40;31.70;1.40
2174;DHT22;1093;51.424;11.764;2022-08-11T13:26:07;31.70;1.40
2174;DHT22;1093;51.424;11.764;2022-08-11T13:28:35;31.70;1.40
2174;DHT22;1093;51.424;11.764;2022-08-11T13:31:02;31.80;1.40
2174;DHT22;1093;51.424;11.764;2022-08-11T13:33:42;31.90;1.40
2174;DHT22;1093;51.424;11.764;2022-08-11T13:36:11;32.00;1.40
2174;DHT22;1093;51.424;11.764;2022-08-11T13:38:41;32.00;1.40
2174;DHT22;1093;51.424;11.764;2022-08-11T13:41:09;32.00;1.40
2174;DHT22;1093;51.424;11.764;2022-08-11T13:43:50;32.10;1.40
2174;DHT22;1093;51.424;11.764;2022-08-11T13:46:19;32.10;1.40
2174;DHT22;1093;51.424;11.764;2022-08-11T13:48:48;32.20;1.40
2174;DHT22;1093;51.424;11.764;2022-08-11T13:51:16;32.20;1.40
2174;DHT22;1093;51.424;11.764;2022-08-11T13:54:01;32.20;1.40
2174;DHT22;1093;51.424;11.764;2022-08-11T13:56:28;32.20;1.40
2174;DHT22;1093;51.424;11.764;2022-08-11T13:58:56;32.30;1.40
2174;DHT22;1093;51.424;11.764;2022-08-11T14:01:27;32.30;1.40
2174;DHT22;1093;51.424;11.764;2022-08-11T14:03:54;32.30;1.40
2174;DHT22;1093;51.424;11.764;2022-08-11T14:06:24;32.10;1.40
2174;DHT22;1093;51.424;11.764;2022-08-11T14:08:51;32.00;1.40
2174;DHT22;1093;51.424;11.764;2022-08-11T14:11:19;31.90;1.40
2174;DHT22;1093;51.424;11.764;2022-08-11T14:14:06;31.80;1.40
2174;DHT22;1093;51.424;11.764;2022-08-11T14:16:38;31.90;1.40
2174;DHT22;1093;51.424;11.764;2022-08-11T14:19:10;32.00;1.40
2174;DHT22;1093;51.424;11.764;2022-08-11T14:21:41;32.10;1.40
2174;DHT22;1093;51.424;11.764;2022-08-11T14:24:26;32.30;1.40
2174;DHT22;1093;51.424;11.764;2022-08-11T14:26:53;32.40;1.40
2174;DHT22;1093;51.424;11.764;2022-08-11T14:29:22;32.40;1.40
2174;DHT22;1093;51.424;11.764;2022-08-11T14:31:53;32.50;1.40
2174;DHT22;1093;51.424;11.764;2022-08-11T14:34:23;32.60;1.40
2174;DHT22;1093;51.424;11.764;2022-08-11T14:36:52;32.60;1.40
2174;DHT22;1093;51.424;11.764;2022-08-11T14:39:21;32.70;1.40
2174;DHT22;1093;51.424;11.764;2022-08-11T14:41:51;32.90;1.40
2174;DHT22;1093;51.424;11.764;2022-08-11T14:44:37;32.80;1.40
2174;DHT22;1093;51.424;11.764;2022-08-11T14:47:23;32.80;1.40
2174;DHT22;1093;51.424;11.764;2022-08-11T14:49:50;32.80;1.40
2174;DHT22;1093;51.424;11.764;2022-08-11T14:52:20;32.90;1.40
2174;DHT22;1093;51.424;11.764;2022-08-11T14:54:49;32.80;1.40
2174;DHT22;1093;51.424;11.764;2022-08-11T14:57:36;32.80;1.40
2174;DHT22;1093;51.424;11.764;2022-08-11T15:00:05;32.80;1.40
2174;DHT22;1093;51.424;11.764;2022-08-11T15:02:33;32.80;1.40
2174;DHT22;1093;51.424;11.764;2022-08-11T15:05:20;32.90;1.40
2174;DHT22;1093;51.424;11.764;2022-08-11T15:07:49;32.80;1.40
2174;DHT22;1093;51.424;11.764;2022-08-11T15:10:18;32.80;1.40
2174;DHT22;1093;51.424;11.764;2022-08-11T15:12:46;32.60;1.40
2174;DHT22;1093;51.424;11.764;2022-08-11T15:15:14;32.60;1.40
2174;DHT22;1093;51.424;11.764;2022-08-11T15:18:00;32.50;1.40
2174;DHT22;1093;51.424;11.764;2022-08-11T15:20:29;32.60;1.40
2174;DHT22;1093;51.424;11.764;2022-08-11T15:23:15;32.70;1.40
2174;DHT22;1093;51.424;11.764;2022-08-11T15:26:03;32.60;1.40
2174;DHT22;1093;51.424;11.764;2022-08-11T15:28:39;32.60;1.40
2174;DHT22;1093;51.424;11.764;2022-08-11T15:31:27;32.60;1.40
2174;DHT22;1093;51.424;11.764;2022-08-11T15:34:16;32.40;1.40
2174;DHT22;1093;51.424;11.764;2022-08-11T15:37:03;32.20;1.40
2174;DHT22;1093;51.424;11.764;2022-08-11T15:39:52;32.20;1.40
2174;DHT22;1093;51.424;11.764;2022-08-11T15:42:44;32.20;1.40
2174;DHT22;1093;51.424;11.764;2022-08-11T15:45:31;32.40;1.40
2174;DHT22;1093;51.424;11.764;2022-08-11T15:48:18;32.40;1.40
2174;DHT22;1093;51.424;11.764;2022-08-11T15:50:49;32.30;1.40
2174;DHT22;1093;51.424;11.764;2022-08-11T15:53:23;32.30;1.40
2174;DHT22;1093;51.424;11.764;2022-08-11T15:55:53;32.20;1.40
2174;DHT22;1093;51.424;11.764;2022-08-11T15:58:22;32.20;1.40
2174;DHT22;1093;51.424;11.764;2022-08-11T16:01:09;32.10;1.40
2174;DHT22;1093;51.424;11.764;2022-08-11T16:04:00;32.10;1.40
2174;DHT22;1093;51.424;11.764;2022-08-11T16:06:44;32.20;1.40
2174;DHT22;1093;51.424;11.764;2022-08-11T16:09:12;32.30;1.40
2174;DHT22;1093;51.424;11.764;2022-08-11T16:11:41;32.20;1.40
2174;DHT22;1093;51.424;11.764;2022-08-11T16:14:11;32.10;1.40
2174;DHT22;1093;51.424;11.764;2022-08-11T16:16:56;32.00;1.40
2174;DHT22;1093;51.424;11.764;2022-08-11T16:19:24;32.00;1.40
2174;DHT22;1093;51.424;11.764;2022-08-11T16:21:54;32.00;1.40
2174;DHT22;1093;51.424;11.764;2022-08-11T16:24:23;31.90;1.40
2174;DHT22;1093;51.424;11.764;2022-08-11T16:26:52;31.90;1.40
2174;DHT22;1093;51.424;11.764;2022-08-11T16:29:22;31.70;1.40
2174;DHT22;1093;51.424;11.764;2022-08-11T16:31:51;31.60;1.40
2174;DHT22;1093;51.424;11.764;2022-08-11T16:34:32;31.60;1.40
2174;DHT22;1093;51.424;11.764;2022-08-11T16:37:17;31.70;1.40
2174;DHT22;1093;51.424;11.764;2022-08-11T16:40:03;31.70;1.40
2174;DHT22;1093;51.424;11.764;2022-08-11T16:42:32;31.60;1.40
2174;DHT22;1093;51.424;11.764;2022-08-11T16:45:13;31.50;1.40
2174;DHT22;1093;51.424;11.764;2022-08-11T16:47:57;31.50;1.40
2174;DHT22;1093;51.424;11.764;2022-08-11T16:50:25;31.40;1.40
2174;DHT22;1093;51.424;11.764;2022-08-11T16:52:54;31.40;1.40
2174;DHT22;1093;51.424;11.764;2022-08-11T16:55:21;31.30;1.40
2174;DHT22;1093;51.424;11.764;2022-08-11T16:57:50;31.10;1.40
2174;DHT22;1093;51.424;11.764;2022-08-11T17:00:36;31.00;1.40
2174;DHT22;1093;51.424;11.764;2022-08-11T17:03:05;30.90;1.40
2174;DHT22;1093;51.424;11.764;2022-08-11T17:05:52;30.90;1.40
2174;DHT22;1093;51.424;11.764;2022-08-11T17:08:41;30.80;1.40
2174;DHT22;1093;51.424;11.764;2022-08-11T17:11:30;30.80;1.40
2174;DHT22;1093;51.424;11.764;2022-08-11T17:14:21;30.70;1.40
2174;DHT22;1093;51.424;11.764;2022-08-11T17:16:50;30.80;1.40
2174;DHT22;1093;51.424;11.764;2022-08-11T17:19:20;30.60;1.40
2174;DHT22;1093;51.424;11.764;2022-08-11T17:21:49;30.50;1.40
2174;DHT22;1093;51.424;11.764;2022-08-11T17:24:35;30.40;1.40
2174;DHT22;1093;51.424;11.764;2022-08-11T17:27:04;30.30;1.40
2174;DHT22;1093;51.424;11.764;2022-08-11T17:29:36;30.10;1.40
2174;DHT22;1093;51.424;11.764;2022-08-11T17:32:06;30.10;1.40
2174;DHT22;1093;51.424;11.764;2022-08-11T17:34:54;30.10;1.40
2174;DHT22;1093;51.424;11.764;2022-08-11T17:37:39;30.00;1.40
2174;DHT22;1093;51.424;11.764;2022-08-11T17:40:09;29.80;1.40
2174;DHT22;1093;51.424;11.764;2022-08-11T17:42:37;29.70;1.40
2174;DHT22;1093;51.424;11.764;2022-08-11T17:45:24;29.50;1.40
2174;DHT22;1093;51.424;11.764;2022-08-11T17:48:26;29.40;1.40
2174;DHT22;1093;51.424;11.764;2022-08-11T17:50:56;29.30;1.40
2174;DHT22;1093;51.424;11.764;2022-08-11T17:53:25;29.20;1.40
2174;DHT22;1093;51.424;11.764;2022-08-11T17:56:11;29.00;1.40
2174;DHT22;1093;51.424;11.764;2022-08-11T17:58:56;29.00;1.40
2174;DHT22;1093;51.424;11.764;2022-08-11T18:01:43;28.80;1.40
2174;DHT22;1093;51.424;11.764;2022-08-11T18:04:12;28.70;1.40
2174;DHT22;1093;51.424;11.764;2022-08-11T18:06:40;28.60;1.40
2174;DHT22;1093;51.424;11.764;2022-08-11T18:09:11;28.50;1.40
2174;DHT22;1093;51.424;11.764;2022-08-11T18:11:58;28.40;1.40
2174;DHT22;1093;51.424;11.764;2022-08-11T18:14:46;28.30;1.40
2174;DHT22;1093;51.424;11.764;2022-08-11T18:17:33;28.30;1.40